createdAt,value
2018-06-28T00:01:47.443Z,49.29
2018-06-28T00:04:16.793Z,49.38
2018-06-28T00:06:46.054Z,49.44
2018-06-28T00:09:15.421Z,48.66
2018-06-28T00:11:44.667Z,50.30
2018-06-28T00:14:13.928Z,49.43
2018-06-28T00:16:42.990Z,49.37
2018-06-28T00:19:12.235Z,49.77
2018-06-28T00:21:41.536Z,49.78
2018-06-28T00:24:10.777Z,49.95
2018-06-28T00:26:40.071Z,50.27
2018-06-28T00:29:09.413Z,49.49
2018-06-28T00:31:38.728Z,49.88
2018-06-28T00:34:08.187Z,50.20
2018-06-28T00:36:38.589Z,51.13
2018-06-28T00:39:09.928Z,50.63
2018-06-28T00:41:39.967Z,50.97
2018-06-28T00:44:09.907Z,50.20
2018-06-28T00:46:39.541Z,50.59
2018-06-28T00:49:09.060Z,50.29
2018-06-28T00:51:38.471Z,50.09
2018-06-28T00:54:07.887Z,51.30
2018-06-28T00:56:37.197Z,51.18
2018-06-28T00:59:06.459Z,50.72
2018-06-28T01:01:35.752Z,51.42
2018-06-28T01:04:05.163Z,51.52
2018-06-28T01:06:34.538Z,51.99
2018-06-28T01:09:05.005Z,51.60
2018-06-28T01:11:34.225Z,52.54
2018-06-28T01:14:03.509Z,52.59
2018-06-28T01:16:32.941Z,52.05
2018-06-28T01:19:02.176Z,52.05
2018-06-28T01:21:31.481Z,53.77
2018-06-28T01:24:00.776Z,55.06
2018-06-28T01:26:29.926Z,55.97
2018-06-28T01:28:59.391Z,56.34
2018-06-28T01:31:28.671Z,56.15
2018-06-28T01:33:58.012Z,57.53
2018-06-28T01:36:27.345Z,56.56
2018-06-28T01:38:56.780Z,56.47
2018-06-28T01:41:32.296Z,58.43
2018-06-28T01:44:01.583Z,58.17
2018-06-28T01:46:31.979Z,57.31
2018-06-28T01:49:01.376Z,59.38
2018-06-28T01:51:30.717Z,59.25
2018-06-28T01:54:00.025Z,59.91
2018-06-28T01:56:29.338Z,59.72
2018-06-28T01:58:58.590Z,59.98
2018-06-28T02:01:27.982Z,59.36
2018-06-28T02:03:57.394Z,60.37
2018-06-28T02:06:26.701Z,60.35
2018-06-28T02:08:55.973Z,60.77
2018-06-28T02:11:25.347Z,59.84
2018-06-28T02:13:54.590Z,60.36
2018-06-28T02:16:23.878Z,61.57
2018-06-28T02:18:53.149Z,61.37
2018-06-28T02:21:22.498Z,61.84
2018-06-28T02:23:51.742Z,61.91
2018-06-28T02:26:21.027Z,63.17
2018-06-28T02:28:50.369Z,62.61
2018-06-28T02:31:19.965Z,62.97
2018-06-28T02:33:49.275Z,62.70
2018-06-28T02:36:18.575Z,62.97
2018-06-28T02:38:47.889Z,63.48
2018-06-28T02:41:17.235Z,63.69
2018-06-28T02:43:46.623Z,63.44
2018-06-28T02:46:15.958Z,63.33
2018-06-28T02:48:45.462Z,63.95
2018-06-28T02:51:14.535Z,63.83
2018-06-28T02:53:43.894Z,63.66
2018-06-28T02:56:13.164Z,64.14
2018-06-28T02:58:42.516Z,64.68
2018-06-28T03:01:12.807Z,64.80
2018-06-28T03:03:42.085Z,64.44
2018-06-28T03:06:11.427Z,64.51
2018-06-28T03:08:40.675Z,64.82
2018-06-28T03:11:10.169Z,65.14
2018-06-28T03:13:39.536Z,64.44
2018-06-28T03:16:08.850Z,64.13
2018-06-28T03:18:37.960Z,63.83
2018-06-28T03:21:07.381Z,63.68
2018-06-28T03:23:36.658Z,63.36
2018-06-28T03:26:06.038Z,64.13
2018-06-28T03:28:35.309Z,64.17
2018-06-28T03:31:04.676Z,64.41
2018-06-28T03:33:33.854Z,64.57
2018-06-28T03:36:03.295Z,64.06
2018-06-28T03:38:32.610Z,65.80
2018-06-28T03:41:01.893Z,63.57
2018-06-28T03:43:31.185Z,63.94
2018-06-28T03:46:00.562Z,64.31
2018-06-28T03:48:29.790Z,64.96
2018-06-28T03:50:59.188Z,64.65
2018-06-28T03:53:28.461Z,64.54
2018-06-28T03:55:57.729Z,65.66
2018-06-28T03:58:27.097Z,64.10
2018-06-28T04:00:56.363Z,64.53
2018-06-28T04:03:25.651Z,65.06
2018-06-28T04:05:55.057Z,65.45
2018-06-28T04:08:24.454Z,64.67
2018-06-28T04:10:53.756Z,65.35
2018-06-28T04:13:23.049Z,64.34
2018-06-28T04:15:52.322Z,63.99
2018-06-28T04:18:21.723Z,64.62
2018-06-28T04:20:51.139Z,61.47
2018-06-28T04:23:20.446Z,57.37
2018-06-28T04:25:49.763Z,53.88
2018-06-28T04:28:19.118Z,52.45
2018-06-28T04:30:48.504Z,51.07
2018-06-28T04:33:18.027Z,52.64
2018-06-28T04:35:47.435Z,53.18
2018-06-28T04:38:17.513Z,53.57
2018-06-28T04:40:47.385Z,53.83
2018-06-28T04:43:16.980Z,54.77
2018-06-28T04:45:46.267Z,55.96
2018-06-28T04:48:15.657Z,56.17
2018-06-28T04:50:45.058Z,56.68
2018-06-28T04:53:14.377Z,56.98
2018-06-28T04:55:43.714Z,57.12
2018-06-28T04:58:13.103Z,58.10
2018-06-28T05:00:42.529Z,57.07
2018-06-28T05:03:11.843Z,57.52
2018-06-28T05:05:41.097Z,56.18
2018-06-28T05:08:10.564Z,57.02
2018-06-28T05:10:39.889Z,55.32
2018-06-28T05:13:09.171Z,55.10
2018-06-28T05:15:38.512Z,54.65
2018-06-28T05:18:07.773Z,54.39
2018-06-28T05:20:37.274Z,54.52
2018-06-28T05:23:06.538Z,53.83
2018-06-28T05:25:35.641Z,52.64
2018-06-28T05:28:04.915Z,51.57
2018-06-28T05:30:34.362Z,49.63
2018-06-28T05:33:03.675Z,49.27
2018-06-28T05:35:33.028Z,49.13
2018-06-28T05:38:02.367Z,48.34
2018-06-28T05:40:31.719Z,49.18
2018-06-28T05:43:01.073Z,48.39
2018-06-28T05:45:30.284Z,48.42
2018-06-28T05:47:59.602Z,47.12
2018-06-28T05:50:28.991Z,46.59
2018-06-28T05:52:58.329Z,46.18
2018-06-28T05:55:27.720Z,46.68
2018-06-28T05:57:57.172Z,45.45
2018-06-28T06:00:26.455Z,44.72
2018-06-28T06:02:55.809Z,43.65
2018-06-28T06:05:25.154Z,44.51
2018-06-28T06:07:54.629Z,44.65
2018-06-28T06:10:24.065Z,43.67
2018-06-28T06:12:53.400Z,44.45
2018-06-28T06:15:22.786Z,42.72
2018-06-28T06:17:52.197Z,42.62
2018-06-28T06:20:21.527Z,41.66
2018-06-28T06:22:50.808Z,41.48
2018-06-28T06:25:20.036Z,43.15
2018-06-28T06:27:49.438Z,42.57
2018-06-28T06:30:18.770Z,41.87
2018-06-28T06:32:48.081Z,40.55
2018-06-28T06:35:17.368Z,40.92
2018-06-28T06:37:46.712Z,40.29
2018-06-28T06:40:15.955Z,39.20
2018-06-28T06:42:45.305Z,39.37
2018-06-28T06:45:14.638Z,39.76
2018-06-28T06:47:43.943Z,38.49
2018-06-28T06:50:13.265Z,37.80
2018-06-28T06:52:42.603Z,38.56
2018-06-28T06:55:11.910Z,38.05
2018-06-28T06:57:41.267Z,36.70
2018-06-28T07:00:10.643Z,36.74
2018-06-28T07:02:39.754Z,34.85
2018-06-28T07:05:09.477Z,36.56
2018-06-28T07:07:38.883Z,34.82
2018-06-28T07:10:08.230Z,35.80
2018-06-28T07:12:37.760Z,35.13
2018-06-28T07:15:09.577Z,34.94
2018-06-28T07:17:43.987Z,35.07
2018-06-28T07:20:14.237Z,33.64
2018-06-28T07:22:44.666Z,34.71
2018-06-28T07:25:13.946Z,34.83
2018-06-28T07:27:44.897Z,33.44
2018-06-28T07:30:14.659Z,32.87
2018-06-28T07:32:44.165Z,32.24
2018-06-28T07:35:19.543Z,33.71
2018-06-28T07:37:53.253Z,33.12
2018-06-28T07:40:33.507Z,33.06
2018-06-28T07:43:10.120Z,33.20
2018-06-28T07:45:43.321Z,33.30
2018-06-28T07:48:20.015Z,33.16
2018-06-28T07:50:49.722Z,31.05
2018-06-28T07:53:19.071Z,32.20
2018-06-28T07:55:48.809Z,30.50
2018-06-28T07:58:18.287Z,30.66
2018-06-28T08:00:47.674Z,31.44
2018-06-28T08:03:16.932Z,31.12
2018-06-28T08:05:46.328Z,32.09
2018-06-28T08:08:15.830Z,31.82
2018-06-28T08:10:45.624Z,30.85
2018-06-28T08:13:15.000Z,29.40
2018-06-28T08:15:44.313Z,30.39
2018-06-28T08:18:13.591Z,30.67
2018-06-28T08:20:42.990Z,29.29
2018-06-28T08:23:12.348Z,30.15
2018-06-28T08:25:42.249Z,27.88
2018-06-28T08:28:11.576Z,29.97
2018-06-28T08:30:40.918Z,30.50
2018-06-28T08:33:10.332Z,29.60
2018-06-28T08:35:39.751Z,29.62
2018-06-28T08:38:09.080Z,29.83
2018-06-28T08:40:38.387Z,29.97
2018-06-28T08:43:07.680Z,29.18
2018-06-28T08:45:37.941Z,30.11
2018-06-28T08:48:08.373Z,29.69
2018-06-28T08:50:38.410Z,30.00
2018-06-28T08:53:07.819Z,29.96
2018-06-28T08:55:37.156Z,28.49
2018-06-28T08:58:06.481Z,30.25
2018-06-28T09:00:35.715Z,30.26
2018-06-28T09:03:05.244Z,30.42
2018-06-28T09:05:34.591Z,27.34
2018-06-28T09:08:03.890Z,27.76
2018-06-28T09:10:33.159Z,28.42
2018-06-28T09:13:02.539Z,27.30
2018-06-28T09:15:31.946Z,27.63
2018-06-28T09:18:01.375Z,27.05
2018-06-28T09:20:30.618Z,27.39
2018-06-28T09:22:59.957Z,27.86
2018-06-28T09:25:29.213Z,27.63
2018-06-28T09:27:58.528Z,31.05
2018-06-28T09:30:28.010Z,29.38
2018-06-28T09:32:57.473Z,28.74
2018-06-28T09:35:26.780Z,28.28
2018-06-28T09:37:56.092Z,29.28
2018-06-28T09:40:25.401Z,28.76
2018-06-28T09:42:54.703Z,29.39
2018-06-28T09:45:24.037Z,28.77
2018-06-28T09:47:53.647Z,28.36
2018-06-28T09:50:24.680Z,27.09
2018-06-28T09:52:54.349Z,27.17
2018-06-28T09:55:23.759Z,26.06
2018-06-28T09:57:53.541Z,29.84
2018-06-28T10:00:28.145Z,28.04
2018-06-28T10:02:57.547Z,26.92
2018-06-28T10:05:26.947Z,27.52
2018-06-28T10:07:56.385Z,26.57
2018-06-28T10:10:26.516Z,27.28
2018-06-28T10:12:55.975Z,26.38
2018-06-28T10:15:25.525Z,26.15
2018-06-28T10:17:55.062Z,26.31
2018-06-28T10:20:24.707Z,25.15
2018-06-28T10:22:54.133Z,25.50
2018-06-28T10:25:23.930Z,25.44
2018-06-28T10:27:53.604Z,26.08
2018-06-28T10:30:23.281Z,27.16
2018-06-28T10:32:52.813Z,26.57
2018-06-28T10:35:22.295Z,26.05
2018-06-28T10:37:52.688Z,25.39
2018-06-28T10:40:22.897Z,25.40
2018-06-28T10:42:52.289Z,25.88
2018-06-28T10:45:21.928Z,26.39
2018-06-28T10:47:51.583Z,24.32
2018-06-28T10:50:21.210Z,25.77
2018-06-28T10:52:50.894Z,25.34
2018-06-28T10:55:20.539Z,26.62
2018-06-28T10:57:50.050Z,26.14
2018-06-28T11:00:19.647Z,26.29
2018-06-28T11:02:49.073Z,26.88
2018-06-28T11:05:18.882Z,25.67
2018-06-28T11:07:48.291Z,25.92
2018-06-28T11:10:17.723Z,26.46
2018-06-28T11:12:47.559Z,24.54
2018-06-28T11:15:17.013Z,25.29
2018-06-28T11:17:46.302Z,26.80
2018-06-28T11:20:15.631Z,26.67
2018-06-28T11:22:45.114Z,27.18
2018-06-28T11:25:14.427Z,26.25
2018-06-28T11:27:43.747Z,24.89
2018-06-28T11:30:13.074Z,26.36
2018-06-28T11:32:42.378Z,24.61
2018-06-28T11:35:11.748Z,23.59
2018-06-28T11:37:41.090Z,23.78
2018-06-28T11:40:10.226Z,25.81
2018-06-28T11:42:39.941Z,26.10
2018-06-28T11:45:09.253Z,23.84
2018-06-28T11:47:38.654Z,23.65
2018-06-28T11:50:07.969Z,24.49
2018-06-28T11:52:37.506Z,24.94
2018-06-28T11:55:06.991Z,25.19
2018-06-28T11:57:36.393Z,25.86
2018-06-28T12:00:06.471Z,25.85
2018-06-28T12:02:35.632Z,24.94
2018-06-28T12:05:05.100Z,24.85
2018-06-28T12:07:34.519Z,25.45
2018-06-28T12:10:03.934Z,25.97
2018-06-28T12:12:33.707Z,25.74
2018-06-28T12:15:03.078Z,24.03
2018-06-28T12:17:32.487Z,23.28
2018-06-28T12:20:02.104Z,25.18
2018-06-28T12:22:31.546Z,24.14
2018-06-28T12:25:00.948Z,23.05
2018-06-28T12:27:30.503Z,24.15
2018-06-28T12:29:59.776Z,23.38
2018-06-28T12:32:29.230Z,23.96
2018-06-28T12:34:58.611Z,25.11
2018-06-28T12:37:28.112Z,23.05
2018-06-28T12:39:57.467Z,24.23
2018-06-28T12:42:26.930Z,24.60
2018-06-28T12:44:56.299Z,24.25
2018-06-28T12:47:45.168Z,24.90
2018-06-28T12:50:14.645Z,22.88
2018-06-28T12:52:53.636Z,24.25
2018-06-28T12:55:23.689Z,22.34
2018-06-28T12:57:55.917Z,21.61
2018-06-28T13:00:25.352Z,23.73
2018-06-28T13:02:54.687Z,24.81
2018-06-28T13:05:24.903Z,24.50
2018-06-28T13:07:54.204Z,25.09
2018-06-28T13:10:23.692Z,25.91
2018-06-28T13:12:53.354Z,26.50
2018-06-28T13:15:22.893Z,25.50
2018-06-28T13:17:52.354Z,24.66
2018-06-28T13:20:21.831Z,24.60
2018-06-28T13:22:51.205Z,24.78
2018-06-28T13:25:20.589Z,25.18
2018-06-28T13:27:50.038Z,25.06
2018-06-28T13:30:19.341Z,25.94
2018-06-28T13:32:48.589Z,25.21
2018-06-28T13:35:19.019Z,25.37
2018-06-28T13:37:48.658Z,24.65
2018-06-28T13:40:18.003Z,24.61
2018-06-28T13:42:47.431Z,23.20
2018-06-28T13:45:16.763Z,24.70
2018-06-28T13:47:46.136Z,23.99
2018-06-28T13:50:15.614Z,24.36
2018-06-28T13:52:44.975Z,24.50
2018-06-28T13:55:14.325Z,25.29
2018-06-28T13:57:43.807Z,25.66
2018-06-28T14:00:13.247Z,24.84
2018-06-28T14:02:42.603Z,26.25
2018-06-28T14:05:11.978Z,25.55
2018-06-28T14:07:41.327Z,25.57
2018-06-28T14:10:10.451Z,26.03
2018-06-28T14:12:39.782Z,25.58
2018-06-28T14:15:09.333Z,25.50
2018-06-28T14:17:38.813Z,26.49
2018-06-28T14:20:09.800Z,27.57
2018-06-28T14:22:39.170Z,25.88
2018-06-28T14:25:08.544Z,28.44
2018-06-28T14:27:38.007Z,27.92
2018-06-28T14:30:08.574Z,27.74
2018-06-28T14:32:37.916Z,29.09
2018-06-28T14:35:07.430Z,27.27
2018-06-28T14:37:36.764Z,27.81
2018-06-28T14:40:07.149Z,27.82
2018-06-28T14:42:36.603Z,26.79
2018-06-28T14:45:06.337Z,27.28
2018-06-28T14:47:35.827Z,26.96
2018-06-28T14:50:05.380Z,27.18
2018-06-28T14:52:34.974Z,27.57
2018-06-28T14:55:04.813Z,27.38
2018-06-28T14:57:34.091Z,28.62
2018-06-28T15:00:03.420Z,29.01
2018-06-28T15:02:32.852Z,28.74
2018-06-28T15:05:02.255Z,28.57
2018-06-28T15:07:31.550Z,28.28
2018-06-28T15:10:00.975Z,28.39
2018-06-28T15:12:30.427Z,28.80
2018-06-28T15:14:59.805Z,28.87
2018-06-28T15:17:29.268Z,27.29
2018-06-28T15:19:58.708Z,27.29
2018-06-28T15:22:28.246Z,29.94
2018-06-28T15:24:57.642Z,29.63
2018-06-28T15:27:27.256Z,29.35
2018-06-28T15:29:56.861Z,29.63
2018-06-28T15:32:26.315Z,29.53
2018-06-28T15:34:55.724Z,30.69
2018-06-28T15:37:25.161Z,28.82
2018-06-28T15:39:54.352Z,30.18
2018-06-28T15:42:24.066Z,29.55
2018-06-28T15:44:53.522Z,29.92
2018-06-28T15:47:23.532Z,30.01
2018-06-28T15:49:53.074Z,31.04
2018-06-28T15:52:22.586Z,31.07
2018-06-28T15:54:51.978Z,30.97
2018-06-28T15:57:21.444Z,30.70
2018-06-28T15:59:50.866Z,31.20
2018-06-28T16:02:20.381Z,30.63
2018-06-28T16:04:49.936Z,30.16
2018-06-28T16:07:19.463Z,29.58
2018-06-28T16:09:48.959Z,31.04
2018-06-28T16:12:19.876Z,31.07
2018-06-28T16:14:49.454Z,31.60
2018-06-28T16:17:19.461Z,31.14
2018-06-28T16:19:48.878Z,31.28
2018-06-28T16:22:18.405Z,30.64
2018-06-28T16:24:47.671Z,32.01
2018-06-28T16:27:17.097Z,30.37
2018-06-28T16:29:46.390Z,31.43
2018-06-28T16:32:15.690Z,31.07
2018-06-28T16:34:45.082Z,31.31
2018-06-28T16:37:14.541Z,32.18
2018-06-28T16:39:43.970Z,31.37
2018-06-28T16:42:13.280Z,31.16
2018-06-28T16:44:42.802Z,30.57
2018-06-28T16:47:13.242Z,30.49
2018-06-28T16:49:42.713Z,31.11
2018-06-28T16:52:12.253Z,30.91
2018-06-28T16:54:41.910Z,30.47
2018-06-28T16:57:11.148Z,30.68
2018-06-28T16:59:40.779Z,32.06
2018-06-28T17:02:10.167Z,31.48
2018-06-28T17:04:39.558Z,32.85
2018-06-28T17:07:08.942Z,32.89
2018-06-28T17:09:38.318Z,32.47
2018-06-28T17:12:07.846Z,33.00
2018-06-28T17:14:37.278Z,32.36
2018-06-28T17:17:06.792Z,32.67
2018-06-28T17:19:36.457Z,33.32
2018-06-28T17:22:05.834Z,33.00
2018-06-28T17:24:35.252Z,32.41
2018-06-28T17:27:04.777Z,33.59
2018-06-28T17:29:34.284Z,32.87
2018-06-28T17:32:03.674Z,33.30
2018-06-28T17:34:33.081Z,34.03
2018-06-28T17:37:02.558Z,33.86
2018-06-28T17:39:32.027Z,33.28
2018-06-28T17:42:01.452Z,32.89
2018-06-28T17:44:30.909Z,33.54
2018-06-28T17:47:00.396Z,34.27
2018-06-28T17:49:29.813Z,33.67
2018-06-28T17:51:59.185Z,34.78
2018-06-28T17:54:28.600Z,34.00
2018-06-28T17:56:57.932Z,35.09
2018-06-28T17:59:27.356Z,34.33
2018-06-28T18:01:56.902Z,35.01
2018-06-28T18:04:26.361Z,34.26
2018-06-28T18:06:55.776Z,35.60
2018-06-28T18:09:25.411Z,35.33
2018-06-28T18:11:54.927Z,35.05
2018-06-28T18:14:24.418Z,35.64
2018-06-28T18:16:53.898Z,35.49
2018-06-28T18:19:23.283Z,34.97
2018-06-28T18:21:52.804Z,35.67
2018-06-28T18:24:22.239Z,35.57
2018-06-28T18:26:51.750Z,35.28
2018-06-28T18:29:21.870Z,35.96
2018-06-28T18:31:51.446Z,36.26
2018-06-28T18:34:20.879Z,36.70
2018-06-28T18:36:50.302Z,36.63
2018-06-28T18:39:19.799Z,36.93
2018-06-28T18:41:49.128Z,36.93
2018-06-28T18:44:18.625Z,36.92
2018-06-28T18:46:48.029Z,35.88
2018-06-28T18:49:18.541Z,36.36
2018-06-28T18:51:48.187Z,34.75
2018-06-28T18:54:17.632Z,35.28
2018-06-28T18:56:46.957Z,35.04
2018-06-28T18:59:16.389Z,35.60
2018-06-28T19:01:45.805Z,34.84
2018-06-28T19:04:15.385Z,35.38
2018-06-28T19:06:44.804Z,35.88
2018-06-28T19:09:14.237Z,36.18
2018-06-28T19:11:43.659Z,36.81
2018-06-28T19:14:19.301Z,35.97
2018-06-28T19:16:53.853Z,36.46
2018-06-28T19:19:23.427Z,35.83
2018-06-28T19:21:58.225Z,36.60
2018-06-28T19:24:27.568Z,37.37
2018-06-28T19:26:57.054Z,37.85
2018-06-28T19:29:31.670Z,37.99
2018-06-28T19:32:06.262Z,37.54
2018-06-28T19:34:37.189Z,37.92
2018-06-28T19:37:06.533Z,38.71
2018-06-28T19:39:41.157Z,38.89
2018-06-28T19:42:15.494Z,39.31
2018-06-28T19:44:44.914Z,38.36
2018-06-28T19:47:14.421Z,39.41
2018-06-28T19:49:48.868Z,38.89
2018-06-28T19:52:23.838Z,39.89
2018-06-28T19:54:53.446Z,39.44
2018-06-28T19:57:23.013Z,40.17
2018-06-28T19:59:53.083Z,40.40
2018-06-28T20:02:27.829Z,40.49
2018-06-28T20:04:57.288Z,40.66
2018-06-28T20:07:26.763Z,40.75
2018-06-28T20:09:56.112Z,40.89
2018-06-28T20:12:30.952Z,40.44
2018-06-28T20:15:06.355Z,40.70
2018-06-28T20:17:42.550Z,41.61
2018-06-28T20:20:17.214Z,42.06
2018-06-28T20:22:46.626Z,40.65
2018-06-28T20:25:16.652Z,42.19
2018-06-28T20:27:51.403Z,42.46
2018-06-28T20:30:26.236Z,41.63
2018-06-28T20:33:00.712Z,42.82
2018-06-28T20:35:30.066Z,42.68
2018-06-28T20:37:59.397Z,43.22
2018-06-28T20:40:28.928Z,44.00
2018-06-28T20:42:58.544Z,43.33
2018-06-28T20:45:27.961Z,44.45
2018-06-28T20:47:57.935Z,45.07
2018-06-28T20:50:27.369Z,44.59
2018-06-28T20:52:57.117Z,45.16
2018-06-28T20:55:26.644Z,44.53
2018-06-28T20:57:56.252Z,45.86
2018-06-28T21:00:26.819Z,48.09
2018-06-28T21:02:56.211Z,45.81
2018-06-28T21:05:25.658Z,45.21
2018-06-28T21:07:55.181Z,45.88
2018-06-28T21:10:24.900Z,45.60
2018-06-28T21:12:54.399Z,47.08
2018-06-28T21:15:24.158Z,46.93
2018-06-28T21:17:53.816Z,46.54
2018-06-28T21:20:23.654Z,46.65
2018-06-28T21:22:53.064Z,47.32
2018-06-28T21:25:22.562Z,46.90
2018-06-28T21:27:52.158Z,46.34
2018-06-28T21:30:21.765Z,46.88
2018-06-28T21:32:51.336Z,47.58
2018-06-28T21:35:20.819Z,46.85
2018-06-28T21:37:50.456Z,47.33
2018-06-28T21:40:19.945Z,46.82
2018-06-28T21:42:49.138Z,47.63
2018-06-28T21:45:18.495Z,47.14
2018-06-28T21:47:47.899Z,47.62
2018-06-28T21:50:17.369Z,47.14
2018-06-28T21:52:46.832Z,49.79
2018-06-28T21:55:16.466Z,48.74
2018-06-28T21:57:45.967Z,48.93
2018-06-28T22:00:31.142Z,48.24
2018-06-28T22:03:01.951Z,48.77
2018-06-28T22:05:31.620Z,48.30
2018-06-28T22:08:01.370Z,48.79
2018-06-28T22:10:30.972Z,48.69
2018-06-28T22:13:00.386Z,48.33
2018-06-28T22:15:30.961Z,49.42
2018-06-28T22:18:02.526Z,49.26
2018-06-28T22:20:32.775Z,49.52
2018-06-28T22:23:02.215Z,50.05
2018-06-28T22:25:32.070Z,51.26
2018-06-28T22:28:01.369Z,50.17
2018-06-28T22:30:30.726Z,49.72
2018-06-28T22:33:00.229Z,50.99
2018-06-28T22:35:29.486Z,50.33
2018-06-28T22:37:58.819Z,50.84
2018-06-28T22:40:28.124Z,51.49
2018-06-28T22:42:57.489Z,50.90
2018-06-28T22:45:26.745Z,51.14
2018-06-28T22:47:56.125Z,52.20
2018-06-28T22:50:25.481Z,51.80
2018-06-28T22:52:54.805Z,52.79
2018-06-28T22:55:24.068Z,52.17
2018-06-28T22:57:53.486Z,51.20
2018-06-28T23:00:30.980Z,52.03
2018-06-28T23:03:00.166Z,51.38
2018-06-28T23:05:29.486Z,51.99
2018-06-28T23:07:58.922Z,52.06
2018-06-28T23:10:28.174Z,51.16
2018-06-28T23:12:57.553Z,51.17
2018-06-28T23:15:26.820Z,51.34
2018-06-28T23:17:56.175Z,50.93
2018-06-28T23:20:25.462Z,51.66
2018-06-28T23:22:54.813Z,53.27
2018-06-28T23:25:24.207Z,51.78
2018-06-28T23:27:53.496Z,51.63
2018-06-28T23:30:22.824Z,52.28
2018-06-28T23:32:52.221Z,52.50
2018-06-28T23:35:21.518Z,52.46
2018-06-28T23:37:51.022Z,52.44
2018-06-28T23:40:20.246Z,54.29
2018-06-28T23:42:50.062Z,54.72
2018-06-28T23:45:19.415Z,53.92
2018-06-28T23:47:48.769Z,53.73
2018-06-28T23:50:18.010Z,53.57
2018-06-28T23:52:47.411Z,55.38
2018-06-28T23:55:16.706Z,53.73
2018-06-28T23:57:46.030Z,54.26
